Terminal Aerodrome Forecast
Issued by NWS Kansas City/Pleasant Hill, MO

Home | Current Version | Previous Version | Text Only | Print | Product List | Glossary On
Versions: 1 2 3 4 5 6 7 8 9 10 11 12 13 14 15
027
FTUS43 KEAX 311126
TAFMCI
TAF
KMCI 311126Z 3112/0112 VRB05KT P6SM BKN120
     FM311800 18005KT P6SM -SHRA VCTS SCT025CB BKN040
     FM010200 VRB05KT P6SM VCSH SCT040 BKN120
     FM010600 33003KT P6SM SCT030 BKN150=

USA.gov is the U.S. government's official web portal to all federal, state and local government web resources and services.